Kenockee Township, Michigan
Current Conditions -  °F | °C
As of 12:57 PM on Monday 24 Nov 2014 (Local Time) from KPHN Reporting Station
Overcast Overcast  
Wind Chill: 54°   Ceiling: 2800
Heat Index: 54°   Visibility: 10mi
Dew Point: 52°   Wind: 16mph
Humidity: 94%   Direction: 200°SSW
Pressure: 29.11"   Gusts: 26mph
Location:  43.076°N, 82.6968°W
Report Text: KPHN 241757Z AUTO 20014G23KT 10SM SCT013 BKN028 OVC044 12/11 A2911 RMK AO2
Loading
Personal Weather Stations






























Interactive Weather Map New forecast layout! Learn more

10-Day Weather Forecast

Advertisements
Track Severe Weather on mobile